Time,TemperatureF,DewpointF,PressureIn,WindDirection,WindDirectionDegrees,WindSpeedMPH,WindSpeedGustMPH,Humidity,HourlyPrecipIn,Conditions,Clouds,dailyrainin,SoftwareType,DateUTC
2013-03-08 00:00:00,50.4,36.2,30.24,SE,135,0.0,0.0,58,0.00,,---,0.00,VWS V14.01,2013-03-08 05:00:00,
2013-03-08 00:01:00,50.4,35.7,30.24,SE,135,0.0,0.0,57,0.00,,---,0.00,VWS V14.01,2013-03-08 05:01:00,
2013-03-08 00:03:00,50.2,36.0,30.24,SE,135,0.0,0.0,58,0.00,,---,0.00,VWS V14.01,2013-03-08 05:03:00,
2013-03-08 00:08:00,50.2,36.0,30.24,SE,135,0.0,0.0,58,0.00,,---,0.00,VWS V14.01,2013-03-08 05:08:00,
2013-03-08 00:14:00,50.0,35.8,30.24,North,0,0.0,0.0,58,0.00,,---,0.00,VWS V14.01,2013-03-08 05:14:00,
2013-03-08 00:20:00,49.8,36.1,30.24,NE,45,0.0,0.0,59,0.00,,---,0.00,VWS V14.01,2013-03-08 05:20:00,
2013-03-08 00:25:00,49.8,36.1,30.24,NE,45,0.0,0.0,59,0.00,,---,0.00,VWS V14.01,2013-03-08 05:25:00,
2013-03-08 00:31:00,49.6,35.9,30.24,ENE,68,0.0,0.0,59,0.00,,---,0.00,VWS V14.01,2013-03-08 05:31:00,
2013-03-08 00:37:00,49.5,35.7,30.24,East,90,0.0,0.0,59,0.00,,---,0.00,VWS V14.01,2013-03-08 05:37:00,
2013-03-08 00:43:00,49.3,35.6,30.24,East,90,0.0,0.0,59,0.00,,---,0.00,VWS V14.01,2013-03-08 05:43:00,
2013-03-08 00:48:00,49.3,36.0,30.24,East,90,0.0,0.0,60,0.00,,---,0.00,VWS V14.01,2013-03-08 05:48:00,
2013-03-08 00:54:00,48.9,35.7,30.24,East,90,0.0,0.0,60,0.00,,---,0.00,VWS V14.01,2013-03-08 05:54:00,
2013-03-08 01:00:00,48.9,35.7,30.24,ESE,112,0.0,0.0,60,0.00,,---,0.00,VWS V14.01,2013-03-08 06:00:00,
2013-03-08 01:05:00,48.9,36.1,30.24,ESE,112,0.0,0.0,61,0.00,,---,0.00,VWS V14.01,2013-03-08 06:05:00,
2013-03-08 01:11:00,48.7,35.9,30.24,ESE,112,0.0,0.0,61,0.00,,---,0.00,VWS V14.01,2013-03-08 06:11:00,
2013-03-08 01:16:00,48.7,35.9,30.24,ESE,112,0.0,0.0,61,0.00,,---,0.00,VWS V14.01,2013-03-08 06:16:00,
2013-03-08 01:22:00,48.6,35.7,30.24,ESE,112,0.0,0.0,61,0.00,,---,0.00,VWS V14.01,2013-03-08 06:22:00,
2013-03-08 01:28:00,48.6,35.7,30.24,ESE,112,0.0,0.0,61,0.00,,---,0.00,VWS V14.01,2013-03-08 06:28:00,
2013-03-08 01:33:00,48.4,36.0,30.24,ESE,112,0.0,0.0,62,0.00,,---,0.00,VWS V14.01,2013-03-08 06:33:00,
2013-03-08 01:39:00,48.4,35.6,30.24,ESE,112,0.0,0.0,61,0.00,,---,0.00,VWS V14.01,2013-03-08 06:39:00,
2013-03-08 01:44:00,48.4,35.6,30.24,ESE,112,0.0,0.0,61,0.00,,---,0.00,VWS V14.01,2013-03-08 06:44:00,
2013-03-08 01:50:00,48.2,35.4,30.24,North,0,0.0,1.6,61,0.00,,---,0.00,VWS V14.01,2013-03-08 06:50:00,
2013-03-08 01:55:00,48.0,35.6,30.24,North,0,0.0,0.0,62,0.00,,---,0.00,VWS V14.01,2013-03-08 06:55:00,
2013-03-08 02:00:00,48.0,36.0,30.24,North,0,0.0,0.0,63,0.00,,---,0.00,VWS V14.01,2013-03-08 07:00:00,
2013-03-08 02:06:00,47.8,35.9,30.24,North,0,0.0,0.0,63,0.00,,---,0.00,VWS V14.01,2013-03-08 07:06:00,
2013-03-08 02:11:00,47.8,35.9,30.24,ESE,112,0.0,0.0,63,0.00,,---,0.00,VWS V14.01,2013-03-08 07:11:00,
2013-03-08 02:18:00,47.8,35.9,30.24,ESE,112,0.0,0.0,63,0.00,,---,0.00,VWS V14.01,2013-03-08 07:18:00,
2013-03-08 02:23:00,47.8,36.3,30.24,ENE,68,0.0,0.0,64,0.00,,---,0.00,VWS V14.01,2013-03-08 07:23:00,
2013-03-08 02:30:00,47.8,36.3,30.24,SE,135,0.0,0.0,64,0.00,,---,0.00,VWS V14.01,2013-03-08 07:30:00,
2013-03-08 02:36:00,48.0,36.4,30.24,North,0,0.0,0.0,64,0.00,,---,0.00,VWS V14.01,2013-03-08 07:36:00,
2013-03-08 02:42:00,48.0,36.4,30.24,North,0,0.0,0.0,64,0.00,,---,0.00,VWS V14.01,2013-03-08 07:42:00,
2013-03-08 02:47:00,48.0,36.8,30.24,WNW,292,0.0,0.0,65,0.00,,---,0.00,VWS V14.01,2013-03-08 07:47:00,
2013-03-08 02:53:00,48.0,36.8,30.24,ESE,112,2.2,2.2,65,0.00,,---,0.00,VWS V14.01,2013-03-08 07:53:00,
2013-03-08 02:58:00,48.2,37.0,30.24,North,0,0.0,1.1,65,0.00,,---,0.00,VWS V14.01,2013-03-08 07:58:00,
2013-03-08 03:03:00,48.2,37.0,30.21,WNW,292,0.0,1.6,65,0.00,,---,0.00,VWS V14.01,2013-03-08 08:03:00,
2013-03-08 03:09:00,48.2,37.0,30.21,NNW,338,0.0,1.6,65,0.00,,---,0.00,VWS V14.01,2013-03-08 08:09:00,
2013-03-08 03:15:00,48.2,37.0,30.21,ESE,112,0.0,0.0,65,0.00,,---,0.00,VWS V14.01,2013-03-08 08:15:00,
2013-03-08 03:20:00,48.0,36.8,30.21,ENE,68,0.0,0.0,65,0.00,,---,0.00,VWS V14.01,2013-03-08 08:20:00,
2013-03-08 03:25:00,47.8,36.7,30.21,NE,45,0.0,2.2,65,0.00,,---,0.00,VWS V14.01,2013-03-08 08:25:00,
2013-03-08 03:31:00,47.8,36.7,30.21,NE,45,0.0,0.0,65,0.00,,---,0.00,VWS V14.01,2013-03-08 08:31:00,
2013-03-08 03:36:00,47.8,36.7,30.21,ENE,68,0.9,0.9,65,0.00,,---,0.00,VWS V14.01,2013-03-08 08:36:00,
2013-03-08 03:42:00,47.8,36.7,30.21,ENE,68,0.0,0.0,65,0.00,,---,0.00,VWS V14.01,2013-03-08 08:42:00,
2013-03-08 03:47:00,47.8,36.7,30.21,ENE,68,0.0,0.0,65,0.00,,---,0.00,VWS V14.01,2013-03-08 08:47:00,
2013-03-08 03:52:00,47.8,36.7,30.21,WNW,292,0.0,0.0,65,0.00,,---,0.00,VWS V14.01,2013-03-08 08:52:00,
2013-03-08 03:58:00,47.8,36.7,30.21,North,0,0.0,0.0,65,0.00,,---,0.00,VWS V14.01,2013-03-08 08:58:00,
2013-03-08 04:03:00,47.7,36.5,30.21,North,0,0.0,0.0,65,0.00,,---,0.00,VWS V14.01,2013-03-08 09:03:00,
2013-03-08 04:09:00,47.7,36.5,30.21,NNE,22,0.0,0.0,65,0.00,,---,0.00,VWS V14.01,2013-03-08 09:09:00,
2013-03-08 04:14:00,47.5,36.3,30.21,NNE,22,0.0,0.0,65,0.00,,---,0.00,VWS V14.01,2013-03-08 09:14:00,
2013-03-08 04:20:00,47.5,36.3,30.21,North,0,0.0,0.0,65,0.00,,---,0.00,VWS V14.01,2013-03-08 09:20:00,
2013-03-08 04:25:00,47.5,36.3,30.21,East,90,0.0,0.0,65,0.00,,---,0.00,VWS V14.01,2013-03-08 09:25:00,
2013-03-08 04:31:00,47.5,36.3,30.24,East,90,0.0,0.0,65,0.00,,---,0.00,VWS V14.01,2013-03-08 09:31:00,
2013-03-08 04:36:00,47.3,36.2,30.24,East,90,0.0,0.0,65,0.00,,---,0.00,VWS V14.01,2013-03-08 09:36:00,
2013-03-08 04:41:00,47.3,36.2,30.24,WNW,292,0.0,0.0,65,0.00,,---,0.00,VWS V14.01,2013-03-08 09:41:00,
2013-03-08 04:47:00,47.3,36.2,30.21,NE,45,0.0,0.0,65,0.00,,---,0.00,VWS V14.01,2013-03-08 09:47:00,
2013-03-08 04:52:00,47.3,36.2,30.21,ENE,68,0.0,0.0,65,0.00,,---,0.00,VWS V14.01,2013-03-08 09:52:00,
2013-03-08 04:58:00,47.3,36.2,30.21,North,0,2.0,2.0,65,0.00,,---,0.00,VWS V14.01,2013-03-08 09:58:00,
2013-03-08 05:03:00,47.1,36.0,30.21,East,90,0.0,0.0,65,0.00,,---,0.00,VWS V14.01,2013-03-08 10:03:00,
2013-03-08 05:08:00,47.1,36.0,30.21,ENE,68,0.0,0.0,65,0.00,,---,0.00,VWS V14.01,2013-03-08 10:08:00,
2013-03-08 05:14:00,47.1,36.4,30.21,North,0,0.9,1.1,66,0.00,,---,0.00,VWS V14.01,2013-03-08 10:14:00,
2013-03-08 05:20:00,47.1,36.4,30.24,NNE,22,2.0,2.0,66,0.00,,---,0.00,VWS V14.01,2013-03-08 10:20:00,
2013-03-08 05:25:00,47.3,36.5,30.24,NNE,22,0.0,2.0,66,0.00,,---,0.00,VWS V14.01,2013-03-08 10:25:00,
2013-03-08 05:30:00,47.3,36.5,30.24,NNW,338,1.1,1.1,66,0.00,,---,0.00,VWS V14.01,2013-03-08 10:30:00,
2013-03-08 05:36:00,47.5,37.1,30.24,North,0,0.0,2.0,67,0.00,,---,0.00,VWS V14.01,2013-03-08 10:36:00,
2013-03-08 05:41:00,47.7,37.3,30.24,North,0,0.0,1.6,67,0.00,,---,0.00,VWS V14.01,2013-03-08 10:41:00,
2013-03-08 05:47:00,47.7,37.3,30.24,North,0,0.0,1.1,67,0.00,,---,0.00,VWS V14.01,2013-03-08 10:47:00,
2013-03-08 05:52:00,47.8,37.4,30.24,ENE,68,1.6,1.6,67,0.00,,---,0.00,VWS V14.01,2013-03-08 10:52:00,
2013-03-08 05:58:00,47.8,37.4,30.24,NNE,22,2.0,2.0,67,0.00,,---,0.00,VWS V14.01,2013-03-08 10:58:00,
2013-03-08 06:03:00,47.8,37.4,30.24,WNW,292,0.0,2.2,67,0.00,,---,0.00,VWS V14.01,2013-03-08 11:03:00,
2013-03-08 06:08:00,47.8,37.4,30.24,North,0,2.5,2.5,67,0.00,,---,0.00,VWS V14.01,2013-03-08 11:08:00,
2013-03-08 06:13:00,48.0,37.6,30.24,NNE,22,0.0,0.9,67,0.00,,---,0.00,VWS V14.01,2013-03-08 11:13:00,
2013-03-08 06:19:00,48.0,37.2,30.24,ENE,68,0.0,0.0,66,0.00,,---,0.00,VWS V14.01,2013-03-08 11:19:00,
2013-03-08 06:24:00,47.8,37.0,30.24,North,0,0.0,0.0,66,0.00,,---,0.00,VWS V14.01,2013-03-08 11:24:00,
2013-03-08 06:30:00,47.8,37.0,30.24,WNW,292,0.0,0.0,66,0.00,,---,0.00,VWS V14.01,2013-03-08 11:30:00,
2013-03-08 06:35:00,47.7,36.5,30.24,NE,45,0.0,0.0,65,0.00,,---,0.00,VWS V14.01,2013-03-08 11:35:00,
2013-03-08 06:40:00,47.7,36.5,30.24,ESE,112,0.0,0.0,65,0.00,,---,0.00,VWS V14.01,2013-03-08 11:40:00,
2013-03-08 06:47:00,47.5,36.7,30.24,NNE,22,0.0,0.0,66,0.00,,---,0.00,VWS V14.01,2013-03-08 11:47:00,
2013-03-08 06:52:00,47.7,36.9,30.24,NNW,338,2.7,2.7,66,0.00,,---,0.00,VWS V14.01,2013-03-08 11:52:00,
2013-03-08 06:58:00,47.7,36.9,30.24,NNE,22,2.9,2.9,66,0.00,,---,0.00,VWS V14.01,2013-03-08 11:58:00,
2013-03-08 07:03:00,47.7,36.9,30.24,SW,225,0.0,0.0,66,0.00,,---,0.00,VWS V14.01,2013-03-08 12:03:00,
2013-03-08 07:08:00,47.7,36.9,30.24,ESE,112,0.0,0.0,66,0.00,,---,0.00,VWS V14.01,2013-03-08 12:08:00,
2013-03-08 07:13:00,47.8,37.0,30.24,SE,135,0.0,0.0,66,0.00,,---,0.00,VWS V14.01,2013-03-08 12:13:00,
2013-03-08 07:19:00,47.8,37.0,30.24,East,90,0.0,0.0,66,0.00,,---,0.00,VWS V14.01,2013-03-08 12:19:00,
2013-03-08 07:25:00,48.0,37.6,30.24,North,0,1.3,2.2,67,0.00,,---,0.00,VWS V14.01,2013-03-08 12:25:00,
2013-03-08 07:31:00,48.2,37.4,30.24,NNE,22,0.0,0.0,66,0.00,,---,0.00,VWS V14.01,2013-03-08 12:31:00,
2013-03-08 07:37:00,48.4,37.6,30.24,ESE,112,0.9,1.1,66,0.00,,---,0.00,VWS V14.01,2013-03-08 12:37:00,
2013-03-08 07:43:00,48.7,37.9,30.24,NNW,338,1.1,2.0,66,0.00,,---,0.00,VWS V14.01,2013-03-08 12:43:00,
2013-03-08 07:48:00,48.7,37.9,30.24,SSE,158,2.9,3.1,66,0.00,,---,0.00,VWS V14.01,2013-03-08 12:48:00,
2013-03-08 07:54:00,49.1,38.2,30.24,North,0,1.1,1.3,66,0.00,,---,0.00,VWS V14.01,2013-03-08 12:54:00,
2013-03-08 07:59:00,49.5,39.0,30.24,SSW,202,2.5,2.5,67,0.00,,---,0.00,VWS V14.01,2013-03-08 12:59:00,
2013-03-08 08:04:00,50.0,39.1,30.27,NW,315,0.0,1.6,66,0.00,,---,0.00,VWS V14.01,2013-03-08 13:04:00,
2013-03-08 08:09:00,50.4,39.5,30.27,NNW,338,2.2,2.2,66,0.00,,---,0.00,VWS V14.01,2013-03-08 13:09:00,
2013-03-08 08:15:00,50.7,39.8,30.27,NNW,338,3.1,3.1,66,0.00,,---,0.00,VWS V14.01,2013-03-08 13:15:00,
2013-03-08 08:20:00,51.4,40.5,30.27,East,90,3.1,3.1,66,0.00,,---,0.00,VWS V14.01,2013-03-08 13:20:00,
2013-03-08 08:25:00,51.8,40.8,30.27,ESE,112,1.6,2.2,66,0.00,,---,0.00,VWS V14.01,2013-03-08 13:25:00,
2013-03-08 08:31:00,52.3,40.9,30.27,NE,45,1.6,1.6,65,0.00,,---,0.00,VWS V14.01,2013-03-08 13:31:00,
2013-03-08 08:36:00,53.1,41.2,30.27,SSW,202,1.1,1.3,64,0.00,,---,0.00,VWS V14.01,2013-03-08 13:36:00,
2013-03-08 08:43:00,53.6,41.3,30.27,NNW,338,0.0,1.3,63,0.00,,---,0.00,VWS V14.01,2013-03-08 13:43:00,
2013-03-08 08:48:00,54.3,41.6,30.27,South,180,0.0,1.3,62,0.00,,---,0.00,VWS V14.01,2013-03-08 13:48:00,
2013-03-08 08:53:00,54.9,41.7,30.27,NW,315,0.0,1.3,61,0.00,,---,0.00,VWS V14.01,2013-03-08 13:53:00,
2013-03-08 08:58:00,55.6,41.9,30.27,East,90,0.0,1.3,60,0.00,,---,0.00,VWS V14.01,2013-03-08 13:58:00,
2013-03-08 09:03:00,56.1,42.0,30.27,NNE,22,2.7,2.7,59,0.00,,---,0.00,VWS V14.01,2013-03-08 14:03:00,
2013-03-08 09:08:00,56.7,42.1,30.27,ESE,112,2.2,4.5,58,0.00,,---,0.00,VWS V14.01,2013-03-08 14:08:00,
2013-03-08 09:13:00,57.4,41.8,30.27,NNW,338,2.0,2.9,56,0.00,,---,0.00,VWS V14.01,2013-03-08 14:13:00,
2013-03-08 09:18:00,57.9,42.3,30.27,NE,45,1.6,2.9,56,0.00,,---,0.00,VWS V14.01,2013-03-08 14:18:00,
2013-03-08 09:24:00,58.5,41.4,30.27,ESE,112,2.0,2.0,53,0.00,,---,0.00,VWS V14.01,2013-03-08 14:24:00,
2013-03-08 09:29:00,59.2,41.1,30.27,NW,315,0.0,2.7,51,0.00,,---,0.00,VWS V14.01,2013-03-08 14:29:00,
2013-03-08 09:35:00,59.7,41.6,30.27,South,180,0.0,0.0,51,0.00,,---,0.00,VWS V14.01,2013-03-08 14:35:00,
2013-03-08 09:40:00,60.6,41.4,30.27,SE,135,2.5,3.1,49,0.00,,---,0.00,VWS V14.01,2013-03-08 14:40:00,
2013-03-08 09:46:00,61.3,41.0,30.27,East,90,2.5,3.1,47,0.00,,---,0.00,VWS V14.01,2013-03-08 14:46:00,
2013-03-08 09:51:00,62.1,41.1,30.27,SSE,158,3.4,4.0,46,0.00,,---,0.00,VWS V14.01,2013-03-08 14:51:00,
2013-03-08 09:57:00,62.6,41.0,30.27,ESE,112,2.9,3.8,45,0.00,,---,0.00,VWS V14.01,2013-03-08 14:57:00,
2013-03-08 10:02:00,63.1,40.9,30.27,East,90,3.4,3.4,44,0.00,,---,0.00,VWS V14.01,2013-03-08 15:02:00,
2013-03-08 10:07:00,64.0,41.1,30.27,NNE,22,4.7,4.7,43,0.00,,---,0.00,VWS V14.01,2013-03-08 15:07:00,
2013-03-08 10:13:00,64.8,39.9,30.27,ENE,68,6.0,7.2,40,0.00,,---,0.00,VWS V14.01,2013-03-08 15:13:00,
2013-03-08 10:19:00,65.3,40.4,30.27,NE,45,1.3,2.5,40,0.00,,---,0.00,VWS V14.01,2013-03-08 15:19:00,
2013-03-08 10:24:00,65.8,40.2,30.27,East,90,3.1,3.1,39,0.00,,---,0.00,VWS V14.01,2013-03-08 15:24:00,
2013-03-08 10:30:00,66.4,39.3,30.27,ESE,112,2.9,3.8,37,0.00,,---,0.00,VWS V14.01,2013-03-08 15:30:00,
2013-03-08 10:35:00,66.9,39.1,30.27,East,90,4.0,4.3,36,0.00,,---,0.00,VWS V14.01,2013-03-08 15:35:00,
2013-03-08 10:40:00,67.3,38.7,30.27,ENE,68,1.3,3.6,35,0.00,,---,0.00,VWS V14.01,2013-03-08 15:40:00,
2013-03-08 10:45:00,67.6,39.0,30.27,ESE,112,1.6,3.8,35,0.00,,---,0.00,VWS V14.01,2013-03-08 15:45:00,
2013-03-08 10:50:00,68.0,38.6,30.27,East,90,6.0,6.0,34,0.00,,---,0.00,VWS V14.01,2013-03-08 15:50:00,
2013-03-08 10:56:00,68.4,38.9,30.27,ESE,112,5.4,5.4,34,0.00,,---,0.00,VWS V14.01,2013-03-08 15:56:00,
2013-03-08 11:01:00,68.7,38.5,30.27,NE,45,2.0,6.3,33,0.00,,---,0.00,VWS V14.01,2013-03-08 16:01:00,
2013-03-08 11:06:00,69.3,39.0,30.27,NNE,22,2.2,2.7,33,0.00,,---,0.00,VWS V14.01,2013-03-08 16:06:00,
2013-03-08 11:12:00,69.4,39.1,30.27,ENE,68,5.6,5.6,33,0.00,,---,0.00,VWS V14.01,2013-03-08 16:12:00,
2013-03-08 11:17:00,70.2,39.0,30.27,NNW,338,2.5,7.4,32,0.00,,---,0.00,VWS V14.01,2013-03-08 16:17:00,
2013-03-08 11:23:00,70.5,39.3,30.27,NNW,338,4.3,4.3,32,0.00,,---,0.00,VWS V14.01,2013-03-08 16:23:00,
2013-03-08 11:28:00,71.1,39.7,30.27,East,90,1.3,1.3,32,0.00,,---,0.00,VWS V14.01,2013-03-08 16:28:00,
2013-03-08 11:34:00,71.1,39.7,30.27,ESE,112,3.6,3.6,32,0.00,,---,0.00,VWS V14.01,2013-03-08 16:34:00,
2013-03-08 11:39:00,71.2,39.9,30.27,WNW,292,3.8,3.8,32,0.00,,---,0.00,VWS V14.01,2013-03-08 16:39:00,
2013-03-08 11:44:00,71.6,39.4,30.27,East,90,3.1,4.0,31,0.00,,---,0.00,VWS V14.01,2013-03-08 16:44:00,
2013-03-08 11:49:00,71.6,39.4,30.27,NW,315,0.0,1.1,31,0.00,,---,0.00,VWS V14.01,2013-03-08 16:49:00,
2013-03-08 11:55:00,71.8,39.5,30.27,East,90,2.9,2.9,31,0.00,,---,0.00,VWS V14.01,2013-03-08 16:55:00,
2013-03-08 12:00:00,72.0,38.9,30.27,SSE,158,3.8,3.8,30,0.00,,---,0.00,VWS V14.01,2013-03-08 17:00:00,
2013-03-08 12:06:00,72.1,39.0,30.27,WSW,248,2.7,6.0,30,0.00,,---,0.00,VWS V14.01,2013-03-08 17:06:00,
2013-03-08 12:11:00,72.7,38.6,30.27,WSW,248,2.7,2.7,29,0.00,,---,0.00,VWS V14.01,2013-03-08 17:11:00,
2013-03-08 12:17:00,73.2,39.1,30.24,WSW,248,2.7,2.7,29,0.00,,---,0.00,VWS V14.01,2013-03-08 17:17:00,
2013-03-08 12:22:00,73.6,38.5,30.24,WSW,248,2.7,2.7,28,0.00,,---,0.00,VWS V14.01,2013-03-08 17:22:00,
2013-03-08 12:27:00,73.9,38.8,30.24,East,90,2.9,2.9,28,0.00,,---,0.00,VWS V14.01,2013-03-08 17:27:00,
2013-03-08 12:34:00,74.5,38.3,30.24,ESE,112,2.7,2.7,27,0.00,,---,0.00,VWS V14.01,2013-03-08 17:34:00,
2013-03-08 12:39:00,75.2,38.0,30.24,North,0,2.2,3.6,26,0.00,,---,0.00,VWS V14.01,2013-03-08 17:39:00,
2013-03-08 12:49:00,75.6,37.3,30.24,SSE,158,2.0,2.0,25,0.00,,---,0.00,VWS V14.01,2013-03-08 17:49:00,
2013-03-08 12:55:00,75.7,37.5,30.24,SSE,158,2.0,2.0,25,0.00,,---,0.00,VWS V14.01,2013-03-08 17:55:00,
2013-03-08 13:01:00,75.9,37.6,30.24,SSE,158,2.0,2.0,25,0.00,,---,0.00,VWS V14.01,2013-03-08 18:01:00,
2013-03-08 13:06:00,76.1,36.7,30.24,WSW,248,4.0,4.0,24,0.00,,---,0.00,VWS V14.01,2013-03-08 18:06:00,
2013-03-08 13:12:00,76.1,36.7,30.24,SW,225,3.1,3.6,24,0.00,,---,0.00,VWS V14.01,2013-03-08 18:12:00,
2013-03-08 13:17:00,76.3,36.9,30.24,NNE,22,1.1,3.1,24,0.00,,---,0.00,VWS V14.01,2013-03-08 18:17:00,
2013-03-08 13:22:00,76.1,36.7,30.24,SSW,202,3.4,4.0,24,0.00,,---,0.00,VWS V14.01,2013-03-08 18:22:00,
2013-03-08 13:27:00,75.7,36.4,30.24,WSW,248,2.9,2.9,24,0.00,,---,0.00,VWS V14.01,2013-03-08 18:27:00,
2013-03-08 13:33:00,75.9,37.6,30.21,North,0,3.6,5.4,25,0.00,,---,0.00,VWS V14.01,2013-03-08 18:33:00,
2013-03-08 13:38:00,76.1,37.8,30.21,SSW,202,2.7,2.7,25,0.00,,---,0.00,VWS V14.01,2013-03-08 18:38:00,
2013-03-08 13:43:00,75.7,36.4,30.21,WNW,292,4.7,4.7,24,0.00,,---,0.00,VWS V14.01,2013-03-08 18:43:00,
2013-03-08 13:49:00,75.9,36.6,30.21,SSE,158,3.1,3.1,24,0.00,,---,0.00,VWS V14.01,2013-03-08 18:49:00,
2013-03-08 13:54:00,75.9,36.6,30.21,WSW,248,2.9,3.4,24,0.00,,---,0.00,VWS V14.01,2013-03-08 18:54:00,
2013-03-08 13:59:00,76.3,36.9,30.21,West,270,1.1,2.7,24,0.00,,---,0.00,VWS V14.01,2013-03-08 18:59:00,
2013-03-08 14:04:00,76.6,37.2,30.21,South,180,6.3,6.3,24,0.00,,---,0.00,VWS V14.01,2013-03-08 19:04:00,
2013-03-08 14:09:00,76.6,36.1,30.21,West,270,2.0,2.0,23,0.00,,---,0.00,VWS V14.01,2013-03-08 19:09:00,
2013-03-08 14:15:00,76.8,37.3,30.21,West,270,1.6,4.7,24,0.00,,---,0.00,VWS V14.01,2013-03-08 19:15:00,
2013-03-08 14:20:00,77.2,36.5,30.21,NNW,338,2.7,2.7,23,0.00,,---,0.00,VWS V14.01,2013-03-08 19:20:00,
2013-03-08 14:26:00,77.0,35.3,30.21,NW,315,7.4,7.4,22,0.00,,---,0.00,VWS V14.01,2013-03-08 19:26:00,
2013-03-08 14:32:00,77.2,35.4,30.21,West,270,2.7,2.7,22,0.00,,---,0.00,VWS V14.01,2013-03-08 19:32:00,
2013-03-08 14:37:00,77.2,35.4,30.21,NW,315,3.1,3.1,22,0.00,,---,0.00,VWS V14.01,2013-03-08 19:37:00,
2013-03-08 14:42:00,77.4,36.7,30.21,WSW,248,3.8,3.8,23,0.00,,---,0.00,VWS V14.01,2013-03-08 19:42:00,
2013-03-08 14:48:00,77.4,36.7,30.21,NW,315,3.4,3.4,23,0.00,,---,0.00,VWS V14.01,2013-03-08 19:48:00,
2013-03-08 14:53:00,77.4,36.7,30.21,South,180,2.5,2.5,23,0.00,,---,0.00,VWS V14.01,2013-03-08 19:53:00,
2013-03-08 14:59:00,77.5,36.8,30.21,South,180,2.9,2.9,23,0.00,,---,0.00,VWS V14.01,2013-03-08 19:59:00,
2013-03-08 15:04:00,77.4,36.7,30.21,SSW,202,1.6,1.6,23,0.00,,---,0.00,VWS V14.01,2013-03-08 20:04:00,
2013-03-08 15:10:00,77.0,36.4,30.21,WSW,248,7.2,7.2,23,0.00,,---,0.00,VWS V14.01,2013-03-08 20:10:00,
2013-03-08 15:15:00,76.6,36.1,30.21,SW,225,4.9,4.9,23,0.00,,---,0.00,VWS V14.01,2013-03-08 20:15:00,
2013-03-08 15:20:00,76.6,37.2,30.21,SW,225,8.1,8.1,24,0.00,,---,0.00,VWS V14.01,2013-03-08 20:20:00,
2013-03-08 15:25:00,76.3,36.9,30.21,WSW,248,4.9,4.9,24,0.00,,---,0.00,VWS V14.01,2013-03-08 20:25:00,
2013-03-08 15:30:00,75.7,36.4,30.21,NW,315,2.9,2.9,24,0.00,,---,0.00,VWS V14.01,2013-03-08 20:30:00,
2013-03-08 15:36:00,75.2,37.0,30.21,NW,315,3.1,7.6,25,0.00,,---,0.00,VWS V14.01,2013-03-08 20:36:00,
2013-03-08 15:42:00,74.8,36.7,30.21,WNW,292,4.0,4.0,25,0.00,,---,0.00,VWS V14.01,2013-03-08 20:42:00,
2013-03-08 15:47:00,75.0,37.8,30.21,NW,315,6.3,6.3,26,0.00,,---,0.00,VWS V14.01,2013-03-08 20:47:00,
2013-03-08 15:53:00,74.7,37.5,30.21,NW,315,7.4,7.4,26,0.00,,---,0.00,VWS V14.01,2013-03-08 20:53:00,
2013-03-08 15:58:00,74.3,37.2,30.21,NW,315,6.3,6.3,26,0.00,,---,0.00,VWS V14.01,2013-03-08 20:58:00,
2013-03-08 16:04:00,73.8,36.8,30.21,North,0,6.9,7.8,26,0.00,,---,0.00,VWS V14.01,2013-03-08 21:04:00,
2013-03-08 16:09:00,73.0,36.2,30.21,SSW,202,5.6,5.6,26,0.00,,---,0.00,VWS V14.01,2013-03-08 21:09:00,
2013-03-08 16:15:00,72.7,35.8,30.21,WSW,248,3.1,7.4,26,0.00,,---,0.00,VWS V14.01,2013-03-08 21:15:00,
2013-03-08 16:20:00,72.3,36.5,30.21,NE,45,6.3,6.3,27,0.00,,---,0.00,VWS V14.01,2013-03-08 21:20:00,
2013-03-08 16:25:00,72.0,36.2,30.21,WNW,292,5.6,5.6,27,0.00,,---,0.00,VWS V14.01,2013-03-08 21:25:00,
2013-03-08 16:31:00,71.6,35.9,30.21,WNW,292,0.9,0.9,27,0.00,,---,0.00,VWS V14.01,2013-03-08 21:31:00,
2013-03-08 16:36:00,71.4,36.7,30.21,NW,315,4.9,4.9,28,0.00,,---,0.00,VWS V14.01,2013-03-08 21:36:00,
2013-03-08 16:41:00,71.2,37.4,30.21,NNW,338,1.1,2.2,29,0.00,,---,0.00,VWS V14.01,2013-03-08 21:41:00,
2013-03-08 16:46:00,71.1,37.2,30.21,NW,315,4.0,4.0,29,0.00,,---,0.00,VWS V14.01,2013-03-08 21:46:00,
2013-03-08 16:52:00,70.7,37.8,30.21,NNW,338,4.0,4.0,30,0.00,,---,0.00,VWS V14.01,2013-03-08 21:52:00,
2013-03-08 16:57:00,70.3,38.3,30.21,SSW,202,3.1,4.7,31,0.00,,---,0.00,VWS V14.01,2013-03-08 21:57:00,
2013-03-08 17:02:00,70.0,38.8,30.21,ENE,68,1.1,2.2,32,0.00,,---,0.00,VWS V14.01,2013-03-08 22:02:00,
2013-03-08 17:07:00,69.8,38.6,30.21,NW,315,3.6,3.6,32,0.00,,---,0.00,VWS V14.01,2013-03-08 22:07:00,
2013-03-08 17:13:00,69.3,39.0,30.21,WSW,248,5.6,7.2,33,0.00,,---,0.00,VWS V14.01,2013-03-08 22:13:00,
2013-03-08 17:18:00,69.3,39.7,30.21,WNW,292,3.6,3.6,34,0.00,,---,0.00,VWS V14.01,2013-03-08 22:18:00,
2013-03-08 17:23:00,68.7,39.2,30.21,NNW,338,2.5,4.3,34,0.00,,---,0.00,VWS V14.01,2013-03-08 22:23:00,
2013-03-08 17:29:00,68.4,38.9,30.21,NNW,338,5.4,5.4,34,0.00,,---,0.00,VWS V14.01,2013-03-08 22:29:00,
2013-03-08 17:35:00,67.6,39.0,30.21,NNE,22,1.6,4.3,35,0.00,,---,0.00,VWS V14.01,2013-03-08 22:35:00,
2013-03-08 17:40:00,67.3,38.7,30.21,WNW,292,8.7,8.7,35,0.00,,---,0.00,VWS V14.01,2013-03-08 22:40:00,
2013-03-08 17:45:00,67.1,38.6,30.21,West,270,5.4,5.4,35,0.00,,---,0.00,VWS V14.01,2013-03-08 22:45:00,
2013-03-08 17:50:00,66.7,38.2,30.21,NW,315,3.8,4.9,35,0.00,,---,0.00,VWS V14.01,2013-03-08 22:50:00,
2013-03-08 17:55:00,66.2,37.8,30.21,WNW,292,7.6,7.6,35,0.00,,---,0.00,VWS V14.01,2013-03-08 22:55:00,
2013-03-08 18:00:00,66.0,38.3,30.21,WNW,292,5.8,5.8,36,0.00,,---,0.00,VWS V14.01,2013-03-08 23:00:00,
2013-03-08 18:06:00,65.8,38.9,30.21,West,270,3.6,8.1,37,0.00,,---,0.00,VWS V14.01,2013-03-08 23:06:00,
2013-03-08 18:11:00,65.7,38.7,30.21,WNW,292,0.9,2.9,37,0.00,,---,0.00,VWS V14.01,2013-03-08 23:11:00,
2013-03-08 18:17:00,65.5,39.2,30.21,NW,315,1.3,1.3,38,0.00,,---,0.00,VWS V14.01,2013-03-08 23:17:00,
2013-03-08 18:22:00,65.3,39.1,30.21,NNW,338,2.9,2.9,38,0.00,,---,0.00,VWS V14.01,2013-03-08 23:22:00,
2013-03-08 18:28:00,64.9,39.4,30.21,ENE,68,0.9,3.6,39,0.00,,---,0.00,VWS V14.01,2013-03-08 23:28:00,
2013-03-08 18:33:00,64.8,39.2,30.21,North,0,1.1,1.6,39,0.00,,---,0.00,VWS V14.01,2013-03-08 23:33:00,
2013-03-08 18:38:00,64.6,39.7,30.21,West,270,3.4,5.6,40,0.00,,---,0.00,VWS V14.01,2013-03-08 23:38:00,
2013-03-08 18:44:00,64.4,39.6,30.21,NW,315,4.0,4.9,40,0.00,,---,0.00,VWS V14.01,2013-03-08 23:44:00,
2013-03-08 18:49:00,64.0,39.9,30.21,North,0,2.7,5.8,41,0.00,,---,0.00,VWS V14.01,2013-03-08 23:49:00,
2013-03-08 18:55:00,63.9,39.7,30.21,WNW,292,0.0,2.9,41,0.00,,---,0.00,VWS V14.01,2013-03-08 23:55:00,
2013-03-08 19:00:00,63.7,39.6,30.21,ESE,112,1.3,2.5,41,0.00,,---,0.00,VWS V14.01,2013-03-09 00:00:00,
2013-03-08 19:05:00,63.5,40.0,30.21,WNW,292,2.5,2.5,42,0.00,,---,0.00,VWS V14.01,2013-03-09 00:05:00,
2013-03-08 19:10:00,63.5,40.0,30.21,SSW,202,2.0,6.0,42,0.00,,---,0.00,VWS V14.01,2013-03-09 00:10:00,
2013-03-08 19:16:00,63.1,40.3,30.24,NW,315,2.2,4.3,43,0.00,,---,0.00,VWS V14.01,2013-03-09 00:16:00,
2013-03-08 19:21:00,63.0,40.1,30.24,ESE,112,0.9,0.9,43,0.00,,---,0.00,VWS V14.01,2013-03-09 00:21:00,
2013-03-08 19:27:00,63.0,40.1,30.24,NW,315,1.1,2.5,43,0.00,,---,0.00,VWS V14.01,2013-03-09 00:27:00,
2013-03-08 19:33:00,62.8,40.6,30.24,NNE,22,2.0,2.5,44,0.00,,---,0.00,VWS V14.01,2013-03-09 00:33:00,
2013-03-08 19:38:00,62.6,40.4,30.24,NE,45,2.7,3.1,44,0.00,,---,0.00,VWS V14.01,2013-03-09 00:38:00,
2013-03-08 19:44:00,62.4,40.2,30.24,North,0,1.3,1.3,44,0.00,,---,0.00,VWS V14.01,2013-03-09 00:44:00,
2013-03-08 19:49:00,62.2,40.1,30.24,NW,315,1.3,4.0,44,0.00,,---,0.00,VWS V14.01,2013-03-09 00:49:00,
2013-03-08 19:55:00,62.1,40.5,30.24,NNW,338,2.2,3.6,45,0.00,,---,0.00,VWS V14.01,2013-03-09 00:55:00,
2013-03-08 20:00:00,61.9,40.3,30.24,NW,315,3.4,3.4,45,0.00,,---,0.00,VWS V14.01,2013-03-09 01:00:00,
2013-03-08 20:06:00,61.7,40.2,30.24,WNW,292,0.0,0.9,45,0.00,,---,0.00,VWS V14.01,2013-03-09 01:06:00,
2013-03-08 20:11:00,61.5,40.0,30.24,NE,45,0.0,2.5,45,0.00,,---,0.00,VWS V14.01,2013-03-09 01:11:00,
2013-03-08 20:16:00,61.3,39.8,30.24,SE,135,0.0,2.9,45,0.00,,---,0.00,VWS V14.01,2013-03-09 01:16:00,
2013-03-08 20:22:00,61.2,39.7,30.24,WSW,248,0.0,0.0,45,0.00,,---,0.00,VWS V14.01,2013-03-09 01:22:00,
2013-03-08 20:27:00,61.0,39.5,30.24,SW,225,0.0,0.0,45,0.00,,---,0.00,VWS V14.01,2013-03-09 01:27:00,
2013-03-08 20:33:00,61.0,39.5,30.24,WNW,292,0.0,1.1,45,0.00,,---,0.00,VWS V14.01,2013-03-09 01:33:00,
2013-03-08 20:38:00,60.6,39.8,30.24,North,0,1.1,1.1,46,0.00,,---,0.00,VWS V14.01,2013-03-09 01:38:00,
2013-03-08 20:44:00,60.6,39.8,30.24,NNW,338,0.0,1.1,46,0.00,,---,0.00,VWS V14.01,2013-03-09 01:44:00,
2013-03-08 20:50:00,60.4,39.6,30.24,WNW,292,0.0,1.1,46,0.00,,---,0.00,VWS V14.01,2013-03-09 01:50:00,
2013-03-08 20:55:00,60.3,39.4,30.24,SE,135,0.0,0.0,46,0.00,,---,0.00,VWS V14.01,2013-03-09 01:55:00,
2013-03-08 21:01:00,60.1,39.2,30.24,WSW,248,0.0,0.0,46,0.00,,---,0.00,VWS V14.01,2013-03-09 02:01:00,
2013-03-08 21:06:00,59.7,39.5,30.24,ENE,68,0.0,0.0,47,0.00,,---,0.00,VWS V14.01,2013-03-09 02:06:00,
2013-03-08 21:12:00,59.4,39.2,30.24,NE,45,0.0,0.0,47,0.00,,---,0.00,VWS V14.01,2013-03-09 02:12:00,
2013-03-08 21:18:00,59.2,39.0,30.24,ESE,112,0.0,0.0,47,0.00,,---,0.00,VWS V14.01,2013-03-09 02:18:00,
2013-03-08 21:23:00,58.8,39.2,30.24,ESE,112,0.0,0.0,48,0.00,,---,0.00,VWS V14.01,2013-03-09 02:23:00,
2013-03-08 21:28:00,58.6,39.0,30.24,ESE,112,0.0,0.0,48,0.00,,---,0.00,VWS V14.01,2013-03-09 02:28:00,
2013-03-08 21:33:00,58.3,39.2,30.24,East,90,1.1,1.6,49,0.00,,---,0.00,VWS V14.01,2013-03-09 02:33:00,
2013-03-08 21:39:00,58.1,39.1,30.24,SE,135,0.0,0.0,49,0.00,,---,0.00,VWS V14.01,2013-03-09 02:39:00,
2013-03-08 21:44:00,57.9,38.9,30.24,SSW,202,0.0,0.0,49,0.00,,---,0.00,VWS V14.01,2013-03-09 02:44:00,
2013-03-08 21:50:00,57.6,39.1,30.24,South,180,0.0,0.0,50,0.00,,---,0.00,VWS V14.01,2013-03-09 02:50:00,
2013-03-08 21:55:00,57.6,39.1,30.24,SSW,202,0.0,0.0,50,0.00,,---,0.00,VWS V14.01,2013-03-09 02:55:00,
2013-03-08 22:00:00,57.2,38.8,30.24,ENE,68,0.0,0.0,50,0.00,,---,0.00,VWS V14.01,2013-03-09 03:00:00,
2013-03-08 22:06:00,57.0,39.1,30.27,ENE,68,0.0,0.0,51,0.00,,---,0.00,VWS V14.01,2013-03-09 03:06:00,
2013-03-08 22:12:00,56.7,38.8,30.27,ENE,68,0.0,0.0,51,0.00,,---,0.00,VWS V14.01,2013-03-09 03:12:00,
2013-03-08 22:17:00,56.5,38.6,30.24,SE,135,0.0,0.0,51,0.00,,---,0.00,VWS V14.01,2013-03-09 03:17:00,
2013-03-08 22:23:00,56.3,38.9,30.24,ESE,112,0.0,0.0,52,0.00,,---,0.00,VWS V14.01,2013-03-09 03:23:00,
2013-03-08 22:29:00,56.1,39.2,30.24,ESE,112,0.0,0.0,53,0.00,,---,0.00,VWS V14.01,2013-03-09 03:29:00,
2013-03-08 22:34:00,55.9,39.1,30.24,ESE,112,0.0,0.0,53,0.00,,---,0.00,VWS V14.01,2013-03-09 03:34:00,
2013-03-08 22:39:00,55.8,38.9,30.24,ESE,112,0.0,0.0,53,0.00,,---,0.00,VWS V14.01,2013-03-09 03:39:00,
2013-03-08 22:45:00,55.6,38.7,30.24,ENE,68,0.0,0.0,53,0.00,,---,0.00,VWS V14.01,2013-03-09 03:45:00,
2013-03-08 22:50:00,55.4,38.6,30.27,East,90,0.0,0.0,53,0.00,,---,0.00,VWS V14.01,2013-03-09 03:50:00,
2013-03-08 22:55:00,55.2,38.9,30.27,WSW,248,0.0,0.0,54,0.00,,---,0.00,VWS V14.01,2013-03-09 03:55:00,
2013-03-08 23:01:00,55.2,38.9,30.27,NE,45,0.0,0.0,54,0.00,,---,0.00,VWS V14.01,2013-03-09 04:01:00,
2013-03-08 23:07:00,55.0,38.7,30.27,East,90,0.0,0.0,54,0.00,,---,0.00,VWS V14.01,2013-03-09 04:07:00,
2013-03-08 23:13:00,55.2,38.9,30.27,North,0,1.3,1.3,54,0.00,,---,0.00,VWS V14.01,2013-03-09 04:13:00,
2013-03-08 23:19:00,55.4,39.0,30.24,ENE,68,1.3,1.3,54,0.00,,---,0.00,VWS V14.01,2013-03-09 04:19:00,
2013-03-08 23:24:00,55.4,39.5,30.24,ESE,112,0.0,0.0,55,0.00,,---,0.00,VWS V14.01,2013-03-09 04:24:00,
2013-03-08 23:29:00,55.4,39.5,30.24,ESE,112,0.0,0.0,55,0.00,,---,0.00,VWS V14.01,2013-03-09 04:29:00,
2013-03-08 23:35:00,55.4,39.5,30.24,North,0,0.0,1.1,55,0.00,,---,0.00,VWS V14.01,2013-03-09 04:35:00,
2013-03-08 23:40:00,55.4,39.5,30.24,NW,315,0.0,0.9,55,0.00,,---,0.00,VWS V14.01,2013-03-09 04:40:00,
2013-03-08 23:46:00,55.6,39.7,30.24,NNE,22,1.6,2.7,55,0.00,,---,0.00,VWS V14.01,2013-03-09 04:46:00,
2013-03-08 23:51:00,55.6,39.2,30.24,NNE,22,0.0,1.3,54,0.00,,---,0.00,VWS V14.01,2013-03-09 04:51:00,
2013-03-08 23:57:00,55.8,39.4,30.24,NNE,22,0.0,2.9,54,0.00,,---,0.00,VWS V14.01,2013-03-09 04:57:00,